Nord Beluga — 9V3218 — position and weather

sailwx.info

Track history (hours):
 
Tides and Currents Weather Stations Pressure Air Temp Water Temp Dewpoint Dewpoint Depression Visibility Wind Speed Wind Dir Waves Ship Positions

Nord Beluga

Last reported at 2018-Feb-10 05:06 UTC. Time now 2018-Feb-22 21:00 UTC.
Position N 33°12' E 132°03'.
Warning: this ship's position is 12 days out of date.

Length 229 m; draft 8.6 m.

Type: Cargo ship. MMSI: 566367000.

Date/timePositionNaut miles runAvg speedWind from/ knotsBaromVisibWave heightAir tempDewpointWater temp
2018-Feb-10 05:06N 33°12' E 132°03'312.0
2018-Feb-10 04:51N 33°14' E 132°02'512.4
2018-Feb-10 04:26N 33°19' E 131°59'512.2
2018-Feb-10 04:00N 33°23' E 131°56'712.2
2018-Feb-10 03:24N 33°30' E 131°52'512.4
2018-Feb-10 03:01N 33°34' E 131°49'612.2
2018-Feb-10 02:30N 33°40' E 131°46'612.0
2018-Feb-10 02:00N 33°45' E 131°43'611.8
2018-Feb-10 01:30N 33°47' E 131°36'611.9
2018-Feb-10 01:00N 33°48' E 131°29'611.7
2018-Feb-10 00:31N 33°49' E 131°22'611.8
2018-Feb-10 00:01N 33°51' E 131°15'4 7.8
2018-Feb-09 23:31N 33°54' E 131°13'3 4.2
2018-Feb-09 22:51N 33°56' E 131°14'0 0.1
2018-Feb-09 22:45N 33°56' E 131°14'0 0.0
2018-Feb-08 16:30N 33°56' E 131°14'0 0.0
2018-Feb-08 12:00N 33°56' E 131°14'0 0.0
2018-Feb-08 11:00N 33°56' E 131°14'0 0.0
2018-Feb-08 09:30N 33°56' E 131°14'0 0.0
2018-Feb-08 07:30N 33°56' E 131°14'0 0.0
2018-Feb-08 07:00N 33°56' E 131°14'0 0.0
2018-Feb-08 06:30N 33°56' E 131°14'0 0.0
2018-Feb-08 06:00N 33°56' E 131°14'9 2.0
2018-Feb-08 01:28N 33°47' E 131°15'1 2.1
2018-Feb-08 01:00N 33°48' E 131°16'3 6.8
2018-Feb-08 00:30N 33°49' E 131°20'611.4
2018-Feb-08 00:00N 33°49' E 131°27'611.4
2018-Feb-07 23:30N 33°48' E 131°34'611.2
2018-Feb-07 23:00N 33°47' E 131°40'611.2
2018-Feb-07 22:30N 33°45' E 131°47'611.1
2018-Feb-07 22:01N 33°40' E 131°49'611.5
2018-Feb-07 21:31N 33°35' E 131°53'  
Track history (hours):
 
Tides and Currents Weather Stations Pressure Air Temp Water Temp Dewpoint Dewpoint Depression Visibility Wind Speed Wind Dir Waves Ship Positions

Nord Beluga

Last reported at 2018-Feb-10 05:06 UTC. Time now 2018-Feb-22 21:00 UTC.
Position N 33°12' E 132°03'.
Warning: this ship's position is 12 days out of date.

Length 229 m; draft 8.6 m.

Type: Cargo ship. MMSI: 566367000.

Date/timePositionNaut miles runAvg speedWind from/ knotsBaromVisibWave heightAir tempDewpointWater temp
2018-Feb-10 05:06N 33°12' E 132°03'312.0
2018-Feb-10 04:51N 33°14' E 132°02'512.4
2018-Feb-10 04:26N 33°19' E 131°59'512.2
2018-Feb-10 04:00N 33°23' E 131°56'712.2
2018-Feb-10 03:24N 33°30' E 131°52'512.4
2018-Feb-10 03:01N 33°34' E 131°49'612.2
2018-Feb-10 02:30N 33°40' E 131°46'612.0
2018-Feb-10 02:00N 33°45' E 131°43'611.8
2018-Feb-10 01:30N 33°47' E 131°36'611.9
2018-Feb-10 01:00N 33°48' E 131°29'611.7
2018-Feb-10 00:31N 33°49' E 131°22'611.8
2018-Feb-10 00:01N 33°51' E 131°15'4 7.8
2018-Feb-09 23:31N 33°54' E 131°13'3 4.2
2018-Feb-09 22:51N 33°56' E 131°14'0 0.1
2018-Feb-09 22:45N 33°56' E 131°14'0 0.0
2018-Feb-08 16:30N 33°56' E 131°14'0 0.0
2018-Feb-08 12:00N 33°56' E 131°14'0 0.0
2018-Feb-08 11:00N 33°56' E 131°14'0 0.0
2018-Feb-08 09:30N 33°56' E 131°14'0 0.0
2018-Feb-08 07:30N 33°56' E 131°14'0 0.0
2018-Feb-08 07:00N 33°56' E 131°14'0 0.0
2018-Feb-08 06:30N 33°56' E 131°14'0 0.0
2018-Feb-08 06:00N 33°56' E 131°14'9 2.0
2018-Feb-08 01:28N 33°47' E 131°15'1 2.1
2018-Feb-08 01:00N 33°48' E 131°16'3 6.8
2018-Feb-08 00:30N 33°49' E 131°20'611.4
2018-Feb-08 00:00N 33°49' E 131°27'611.4
2018-Feb-07 23:30N 33°48' E 131°34'611.2
2018-Feb-07 23:00N 33°47' E 131°40'611.2
2018-Feb-07 22:30N 33°45' E 131°47'611.1
2018-Feb-07 22:01N 33°40' E 131°49'611.5
2018-Feb-07 21:31N 33°35' E 131°53'  

Dump ship's entire track history